Calabogie, Canada
Current Conditions -  °F | °C
As of 9:28 AM on Sunday 21 Dec 2014 (Local Time) from CYOW Reporting Station
Light Snow Light Snow  
Wind Chill: 12°   Ceiling: 500
Heat Index: 12°   Visibility: 1.5mi
Dew Point: 10°   Wind: 2mph
Humidity: 92%   Direction: NA
Pressure: 30.38"   Gusts: NA
Location:  45.31°N, 76.72°W
Report Text: CYOW 211428Z VRB02KT 1 1/2SM -SN BR OVC005 M11/M12 A3038 RMK FG4SF4 SLP296
Loading
Personal Weather Stations






























Interactive Weather Map New forecast layout! Learn more

10-Day Weather Forecast

Advertisements
Track Severe Weather on mobile